sensor_id;sensor_type;location;lat;lon;timestamp;P1;durP1;ratioP1;P2;durP2;ratioP2
12947;SDS011;6539;49.476;8.484;2023-01-10T00:00:51;3.33;;;1.50;;
12947;SDS011;6539;49.476;8.484;2023-01-10T00:03:19;1.20;;;1.10;;
12947;SDS011;6539;49.476;8.484;2023-01-10T00:05:45;1.30;;;1.20;;
12947;SDS011;6539;49.476;8.484;2023-01-10T00:08:16;1.63;;;1.20;;
12947;SDS011;6539;49.476;8.484;2023-01-10T00:10:42;2.93;;;1.40;;
12947;SDS011;6539;49.476;8.484;2023-01-10T00:13:15;1.23;;;0.87;;
12947;SDS011;6539;49.476;8.484;2023-01-10T00:15:48;2.57;;;1.27;;
12947;SDS011;6539;49.476;8.484;2023-01-10T00:18:18;1.23;;;1.07;;
12947;SDS011;6539;49.476;8.484;2023-01-10T00:20:47;1.33;;;1.03;;
12947;SDS011;6539;49.476;8.484;2023-01-10T00:23:16;1.10;;;1.00;;
12947;SDS011;6539;49.476;8.484;2023-01-10T00:25:43;3.67;;;1.33;;
12947;SDS011;6539;49.476;8.484;2023-01-10T00:28:10;1.30;;;1.20;;
12947;SDS011;6539;49.476;8.484;2023-01-10T00:30:50;1.27;;;1.13;;
12947;SDS011;6539;49.476;8.484;2023-01-10T00:33:25;1.77;;;1.40;;
12947;SDS011;6539;49.476;8.484;2023-01-10T00:35:52;1.40;;;1.30;;
12947;SDS011;6539;49.476;8.484;2023-01-10T00:38:18;1.83;;;1.13;;
12947;SDS011;6539;49.476;8.484;2023-01-10T00:40:44;1.53;;;1.30;;
12947;SDS011;6539;49.476;8.484;2023-01-10T00:43:10;1.90;;;0.80;;
12947;SDS011;6539;49.476;8.484;2023-01-10T00:46:02;1.90;;;0.90;;
12947;SDS011;6539;49.476;8.484;2023-01-10T00:48:30;1.43;;;1.00;;
12947;SDS011;6539;49.476;8.484;2023-01-10T00:50:56;2.30;;;0.90;;
12947;SDS011;6539;49.476;8.484;2023-01-10T00:53:24;0.93;;;0.80;;
12947;SDS011;6539;49.476;8.484;2023-01-10T00:55:53;1.50;;;0.80;;
12947;SDS011;6539;49.476;8.484;2023-01-10T00:58:22;0.70;;;0.70;;
12947;SDS011;6539;49.476;8.484;2023-01-10T01:00:48;0.70;;;0.70;;
12947;SDS011;6539;49.476;8.484;2023-01-10T01:03:15;1.43;;;0.70;;
12947;SDS011;6539;49.476;8.484;2023-01-10T01:05:45;0.87;;;0.87;;
12947;SDS011;6539;49.476;8.484;2023-01-10T01:08:13;1.20;;;1.00;;
12947;SDS011;6539;49.476;8.484;2023-01-10T01:10:40;0.50;;;0.50;;
12947;SDS011;6539;49.476;8.484;2023-01-10T01:13:09;0.67;;;0.67;;
12947;SDS011;6539;49.476;8.484;2023-01-10T01:15:41;1.33;;;0.80;;
12947;SDS011;6539;49.476;8.484;2023-01-10T01:18:09;0.70;;;0.70;;
12947;SDS011;6539;49.476;8.484;2023-01-10T01:20:45;1.80;;;0.60;;
12947;SDS011;6539;49.476;8.484;2023-01-10T01:23:12;1.40;;;0.70;;
12947;SDS011;6539;49.476;8.484;2023-01-10T01:25:40;0.80;;;0.80;;
12947;SDS011;6539;49.476;8.484;2023-01-10T01:28:11;0.67;;;0.67;;
12947;SDS011;6539;49.476;8.484;2023-01-10T01:30:40;0.70;;;0.70;;
12947;SDS011;6539;49.476;8.484;2023-01-10T01:33:08;1.50;;;0.70;;
12947;SDS011;6539;49.476;8.484;2023-01-10T01:35:33;1.40;;;0.60;;
12947;SDS011;6539;49.476;8.484;2023-01-10T01:37:59;0.70;;;0.67;;
12947;SDS011;6539;49.476;8.484;2023-01-10T01:40:27;0.87;;;0.70;;
12947;SDS011;6539;49.476;8.484;2023-01-10T01:42:56;1.13;;;1.03;;
12947;SDS011;6539;49.476;8.484;2023-01-10T01:47:52;1.90;;;0.90;;
12947;SDS011;6539;49.476;8.484;2023-01-10T01:52:55;1.00;;;0.90;;
12947;SDS011;6539;49.476;8.484;2023-01-10T01:55:30;3.10;;;1.00;;
12947;SDS011;6539;49.476;8.484;2023-01-10T01:58:02;2.60;;;0.90;;
12947;SDS011;6539;49.476;8.484;2023-01-10T02:00:39;1.40;;;1.00;;
12947;SDS011;6539;49.476;8.484;2023-01-10T02:03:06;1.60;;;1.00;;
12947;SDS011;6539;49.476;8.484;2023-01-10T02:05:32;1.10;;;1.00;;
12947;SDS011;6539;49.476;8.484;2023-01-10T02:08:04;1.00;;;0.90;;
12947;SDS011;6539;49.476;8.484;2023-01-10T02:10:35;3.47;;;1.17;;
12947;SDS011;6539;49.476;8.484;2023-01-10T02:13:13;0.90;;;0.90;;
12947;SDS011;6539;49.476;8.484;2023-01-10T02:15:45;1.13;;;1.00;;
12947;SDS011;6539;49.476;8.484;2023-01-10T02:18:11;2.03;;;1.13;;
12947;SDS011;6539;49.476;8.484;2023-01-10T02:27:19;0.90;;;0.77;;
12947;SDS011;6539;49.476;8.484;2023-01-10T02:30:34;1.30;;;1.00;;
12947;SDS011;6539;49.476;8.484;2023-01-10T02:33:34;1.63;;;0.83;;
12947;SDS011;6539;49.476;8.484;2023-01-10T02:39:10;3.83;;;1.33;;
12947;SDS011;6539;49.476;8.484;2023-01-10T02:44:49;3.33;;;1.40;;
12947;SDS011;6539;49.476;8.484;2023-01-10T02:47:22;3.37;;;1.50;;
12947;SDS011;6539;49.476;8.484;2023-01-10T02:49:50;1.73;;;1.00;;
12947;SDS011;6539;49.476;8.484;2023-01-10T02:52:22;5.00;;;1.50;;
12947;SDS011;6539;49.476;8.484;2023-01-10T02:54:55;1.47;;;0.87;;
12947;SDS011;6539;49.476;8.484;2023-01-10T03:03:17;3.43;;;1.00;;
12947;SDS011;6539;49.476;8.484;2023-01-10T03:09:29;1.90;;;1.30;;
12947;SDS011;6539;49.476;8.484;2023-01-10T03:12:13;1.43;;;1.23;;
12947;SDS011;6539;49.476;8.484;2023-01-10T03:15:09;2.93;;;1.57;;
12947;SDS011;6539;49.476;8.484;2023-01-10T03:17:41;3.13;;;1.50;;
12947;SDS011;6539;49.476;8.484;2023-01-10T03:20:13;3.67;;;1.40;;
12947;SDS011;6539;49.476;8.484;2023-01-10T03:22:43;1.93;;;1.00;;
12947;SDS011;6539;49.476;8.484;2023-01-10T03:25:20;3.67;;;1.40;;
12947;SDS011;6539;49.476;8.484;2023-01-10T03:27:56;2.37;;;1.20;;
12947;SDS011;6539;49.476;8.484;2023-01-10T03:33:40;5.93;;;1.80;;
12947;SDS011;6539;49.476;8.484;2023-01-10T03:41:25;4.17;;;1.50;;
12947;SDS011;6539;49.476;8.484;2023-01-10T03:47:08;3.83;;;1.33;;
12947;SDS011;6539;49.476;8.484;2023-01-10T03:49:36;3.50;;;1.50;;
12947;SDS011;6539;49.476;8.484;2023-01-10T03:52:10;2.13;;;1.40;;
12947;SDS011;6539;49.476;8.484;2023-01-10T03:54:44;2.13;;;1.57;;
12947;SDS011;6539;49.476;8.484;2023-01-10T03:57:20;4.10;;;1.77;;
12947;SDS011;6539;49.476;8.484;2023-01-10T03:59:49;4.67;;;1.70;;
12947;SDS011;6539;49.476;8.484;2023-01-10T04:02:26;5.43;;;1.93;;
12947;SDS011;6539;49.476;8.484;2023-01-10T04:04:57;6.50;;;2.03;;
12947;SDS011;6539;49.476;8.484;2023-01-10T04:07:25;5.37;;;1.70;;
12947;SDS011;6539;49.476;8.484;2023-01-10T04:09:54;5.17;;;1.70;;
12947;SDS011;6539;49.476;8.484;2023-01-10T04:12:19;4.10;;;1.70;;
12947;SDS011;6539;49.476;8.484;2023-01-10T04:14:48;6.70;;;2.20;;
12947;SDS011;6539;49.476;8.484;2023-01-10T04:17:14;9.67;;;2.03;;
12947;SDS011;6539;49.476;8.484;2023-01-10T04:19:43;5.80;;;1.90;;
12947;SDS011;6539;49.476;8.484;2023-01-10T04:22:10;4.67;;;2.50;;
12947;SDS011;6539;49.476;8.484;2023-01-10T04:24:36;4.43;;;1.40;;
12947;SDS011;6539;49.476;8.484;2023-01-10T04:27:05;5.50;;;1.90;;
12947;SDS011;6539;49.476;8.484;2023-01-10T04:29:31;8.50;;;2.33;;
12947;SDS011;6539;49.476;8.484;2023-01-10T04:31:59;5.73;;;1.60;;
12947;SDS011;6539;49.476;8.484;2023-01-10T04:34:27;3.87;;;1.50;;
12947;SDS011;6539;49.476;8.484;2023-01-10T04:36:52;5.27;;;1.80;;
12947;SDS011;6539;49.476;8.484;2023-01-10T04:39:20;5.13;;;2.10;;
12947;SDS011;6539;49.476;8.484;2023-01-10T04:41:46;6.90;;;1.53;;
12947;SDS011;6539;49.476;8.484;2023-01-10T04:44:14;3.03;;;1.60;;
12947;SDS011;6539;49.476;8.484;2023-01-10T04:46:42;5.23;;;1.60;;
12947;SDS011;6539;49.476;8.484;2023-01-10T04:49:10;3.20;;;1.83;;
12947;SDS011;6539;49.476;8.484;2023-01-10T04:51:36;5.27;;;1.90;;
12947;SDS011;6539;49.476;8.484;2023-01-10T04:54:04;3.57;;;1.97;;
12947;SDS011;6539;49.476;8.484;2023-01-10T04:56:32;5.70;;;2.23;;
12947;SDS011;6539;49.476;8.484;2023-01-10T04:59:00;5.83;;;2.10;;
12947;SDS011;6539;49.476;8.484;2023-01-10T05:01:26;7.43;;;2.60;;
12947;SDS011;6539;49.476;8.484;2023-01-10T05:03:53;5.40;;;2.30;;
12947;SDS011;6539;49.476;8.484;2023-01-10T05:06:21;5.87;;;2.20;;
12947;SDS011;6539;49.476;8.484;2023-01-10T05:08:50;10.93;;;2.13;;
12947;SDS011;6539;49.476;8.484;2023-01-10T05:11:16;7.63;;;2.53;;
12947;SDS011;6539;49.476;8.484;2023-01-10T05:13:44;6.83;;;2.23;;
12947;SDS011;6539;49.476;8.484;2023-01-10T05:16:10;5.53;;;2.00;;
12947;SDS011;6539;49.476;8.484;2023-01-10T05:18:35;6.87;;;2.30;;
12947;SDS011;6539;49.476;8.484;2023-01-10T05:21:07;8.50;;;2.40;;
12947;SDS011;6539;49.476;8.484;2023-01-10T05:23:39;4.37;;;1.93;;
12947;SDS011;6539;49.476;8.484;2023-01-10T05:26:09;12.93;;;2.23;;
12947;SDS011;6539;49.476;8.484;2023-01-10T05:28:38;6.13;;;2.10;;
12947;SDS011;6539;49.476;8.484;2023-01-10T05:31:06;5.13;;;2.10;;
12947;SDS011;6539;49.476;8.484;2023-01-10T05:33:44;5.97;;;1.90;;
12947;SDS011;6539;49.476;8.484;2023-01-10T05:36:17;5.20;;;2.13;;
12947;SDS011;6539;49.476;8.484;2023-01-10T05:38:45;5.60;;;2.00;;
12947;SDS011;6539;49.476;8.484;2023-01-10T05:41:11;7.90;;;2.23;;
12947;SDS011;6539;49.476;8.484;2023-01-10T05:43:37;6.30;;;1.97;;
12947;SDS011;6539;49.476;8.484;2023-01-10T05:46:06;7.03;;;2.03;;
12947;SDS011;6539;49.476;8.484;2023-01-10T05:48:34;5.13;;;2.13;;
12947;SDS011;6539;49.476;8.484;2023-01-10T05:51:02;9.80;;;2.37;;
12947;SDS011;6539;49.476;8.484;2023-01-10T05:53:30;5.67;;;2.37;;
12947;SDS011;6539;49.476;8.484;2023-01-10T05:55:57;8.00;;;2.60;;
12947;SDS011;6539;49.476;8.484;2023-01-10T05:58:28;7.03;;;2.40;;
12947;SDS011;6539;49.476;8.484;2023-01-10T06:00:59;5.23;;;2.30;;
12947;SDS011;6539;49.476;8.484;2023-01-10T06:03:25;12.13;;;2.20;;
12947;SDS011;6539;49.476;8.484;2023-01-10T06:05:53;7.00;;;2.77;;
12947;SDS011;6539;49.476;8.484;2023-01-10T06:08:20;7.33;;;2.40;;
12947;SDS011;6539;49.476;8.484;2023-01-10T06:10:47;7.97;;;2.07;;
12947;SDS011;6539;49.476;8.484;2023-01-10T06:13:13;6.57;;;2.27;;
12947;SDS011;6539;49.476;8.484;2023-01-10T06:15:39;9.07;;;2.90;;
12947;SDS011;6539;49.476;8.484;2023-01-10T06:18:07;6.03;;;2.40;;
12947;SDS011;6539;49.476;8.484;2023-01-10T06:20:39;6.30;;;2.47;;
12947;SDS011;6539;49.476;8.484;2023-01-10T06:23:07;9.63;;;2.60;;
12947;SDS011;6539;49.476;8.484;2023-01-10T06:25:34;8.83;;;2.60;;
12947;SDS011;6539;49.476;8.484;2023-01-10T06:28:04;5.43;;;2.30;;
12947;SDS011;6539;49.476;8.484;2023-01-10T06:30:36;6.27;;;2.40;;
12947;SDS011;6539;49.476;8.484;2023-01-10T06:33:07;8.13;;;2.20;;
12947;SDS011;6539;49.476;8.484;2023-01-10T06:35:35;8.90;;;2.73;;
12947;SDS011;6539;49.476;8.484;2023-01-10T06:38:01;11.03;;;2.77;;
12947;SDS011;6539;49.476;8.484;2023-01-10T06:40:28;7.70;;;2.13;;
12947;SDS011;6539;49.476;8.484;2023-01-10T06:42:53;15.07;;;2.93;;
12947;SDS011;6539;49.476;8.484;2023-01-10T06:45:23;9.03;;;2.60;;
12947;SDS011;6539;49.476;8.484;2023-01-10T06:47:51;11.90;;;3.10;;
12947;SDS011;6539;49.476;8.484;2023-01-10T06:50:21;9.00;;;2.37;;
12947;SDS011;6539;49.476;8.484;2023-01-10T06:52:59;15.70;;;4.00;;
12947;SDS011;6539;49.476;8.484;2023-01-10T06:55:32;14.17;;;3.30;;
12947;SDS011;6539;49.476;8.484;2023-01-10T06:58:02;12.47;;;3.47;;
12947;SDS011;6539;49.476;8.484;2023-01-10T07:00:30;11.90;;;3.23;;
12947;SDS011;6539;49.476;8.484;2023-01-10T07:02:56;7.67;;;2.67;;
12947;SDS011;6539;49.476;8.484;2023-01-10T07:05:26;7.63;;;2.40;;
12947;SDS011;6539;49.476;8.484;2023-01-10T07:07:53;13.20;;;3.57;;
12947;SDS011;6539;49.476;8.484;2023-01-10T07:10:22;9.87;;;3.07;;
12947;SDS011;6539;49.476;8.484;2023-01-10T07:12:48;8.70;;;2.83;;
12947;SDS011;6539;49.476;8.484;2023-01-10T07:15:14;7.60;;;2.37;;
12947;SDS011;6539;49.476;8.484;2023-01-10T07:17:39;10.30;;;2.77;;
12947;SDS011;6539;49.476;8.484;2023-01-10T07:20:06;12.80;;;3.70;;
12947;SDS011;6539;49.476;8.484;2023-01-10T07:22:32;10.43;;;3.00;;
12947;SDS011;6539;49.476;8.484;2023-01-10T07:25:00;8.07;;;2.77;;
12947;SDS011;6539;49.476;8.484;2023-01-10T07:27:26;11.10;;;2.73;;
12947;SDS011;6539;49.476;8.484;2023-01-10T07:30:00;9.90;;;3.03;;
12947;SDS011;6539;49.476;8.484;2023-01-10T07:32:28;12.63;;;3.20;;
12947;SDS011;6539;49.476;8.484;2023-01-10T07:34:54;12.20;;;2.70;;
12947;SDS011;6539;49.476;8.484;2023-01-10T07:37:20;10.20;;;2.60;;
12947;SDS011;6539;49.476;8.484;2023-01-10T07:39:50;12.17;;;3.07;;
12947;SDS011;6539;49.476;8.484;2023-01-10T07:42:16;9.40;;;2.97;;
12947;SDS011;6539;49.476;8.484;2023-01-10T07:44:42;14.73;;;3.70;;
12947;SDS011;6539;49.476;8.484;2023-01-10T07:47:07;10.93;;;3.37;;
12947;SDS011;6539;49.476;8.484;2023-01-10T07:49:35;11.73;;;3.23;;
12947;SDS011;6539;49.476;8.484;2023-01-10T07:52:03;12.17;;;2.87;;
12947;SDS011;6539;49.476;8.484;2023-01-10T07:54:34;10.53;;;2.67;;
12947;SDS011;6539;49.476;8.484;2023-01-10T07:57:00;8.13;;;2.87;;
12947;SDS011;6539;49.476;8.484;2023-01-10T07:59:26;15.97;;;3.20;;
12947;SDS011;6539;49.476;8.484;2023-01-10T08:01:52;13.57;;;3.23;;
12947;SDS011;6539;49.476;8.484;2023-01-10T08:04:20;12.63;;;3.63;;
12947;SDS011;6539;49.476;8.484;2023-01-10T08:06:46;10.67;;;3.10;;
12947;SDS011;6539;49.476;8.484;2023-01-10T08:09:15;6.40;;;2.97;;
12947;SDS011;6539;49.476;8.484;2023-01-10T08:11:40;12.77;;;3.13;;
12947;SDS011;6539;49.476;8.484;2023-01-10T08:14:09;9.80;;;2.40;;
12947;SDS011;6539;49.476;8.484;2023-01-10T08:16:34;11.90;;;3.03;;
12947;SDS011;6539;49.476;8.484;2023-01-10T08:19:03;12.57;;;4.30;;
12947;SDS011;6539;49.476;8.484;2023-01-10T08:21:28;8.37;;;3.40;;
12947;SDS011;6539;49.476;8.484;2023-01-10T08:23:57;9.37;;;3.43;;
12947;SDS011;6539;49.476;8.484;2023-01-10T08:26:22;10.93;;;3.87;;
12947;SDS011;6539;49.476;8.484;2023-01-10T08:28:51;7.63;;;3.07;;
12947;SDS011;6539;49.476;8.484;2023-01-10T08:31:17;8.77;;;2.87;;
12947;SDS011;6539;49.476;8.484;2023-01-10T08:33:48;6.63;;;2.57;;
12947;SDS011;6539;49.476;8.484;2023-01-10T08:36:18;10.43;;;3.23;;
12947;SDS011;6539;49.476;8.484;2023-01-10T08:38:46;14.23;;;3.37;;
12947;SDS011;6539;49.476;8.484;2023-01-10T08:41:12;9.47;;;2.90;;
12947;SDS011;6539;49.476;8.484;2023-01-10T08:43:43;11.70;;;3.83;;
12947;SDS011;6539;49.476;8.484;2023-01-10T08:46:11;10.60;;;2.63;;
12947;SDS011;6539;49.476;8.484;2023-01-10T08:48:39;8.43;;;3.23;;
12947;SDS011;6539;49.476;8.484;2023-01-10T08:51:06;8.13;;;3.13;;
12947;SDS011;6539;49.476;8.484;2023-01-10T08:53:33;9.50;;;3.00;;
12947;SDS011;6539;49.476;8.484;2023-01-10T08:55:59;10.27;;;2.80;;
12947;SDS011;6539;49.476;8.484;2023-01-10T08:58:25;8.27;;;2.80;;
12947;SDS011;6539;49.476;8.484;2023-01-10T09:00:56;11.47;;;2.83;;
12947;SDS011;6539;49.476;8.484;2023-01-10T09:03:24;7.13;;;2.63;;
12947;SDS011;6539;49.476;8.484;2023-01-10T09:05:50;9.03;;;2.97;;
12947;SDS011;6539;49.476;8.484;2023-01-10T09:08:15;9.90;;;3.23;;
12947;SDS011;6539;49.476;8.484;2023-01-10T09:10:44;6.13;;;2.60;;
12947;SDS011;6539;49.476;8.484;2023-01-10T09:13:10;7.60;;;3.10;;
12947;SDS011;6539;49.476;8.484;2023-01-10T09:15:35;10.03;;;2.63;;
12947;SDS011;6539;49.476;8.484;2023-01-10T09:18:05;6.00;;;2.27;;
12947;SDS011;6539;49.476;8.484;2023-01-10T09:20:34;13.03;;;3.17;;
12947;SDS011;6539;49.476;8.484;2023-01-10T09:23:10;8.00;;;2.63;;
12947;SDS011;6539;49.476;8.484;2023-01-10T09:25:43;11.57;;;3.07;;
12947;SDS011;6539;49.476;8.484;2023-01-10T09:28:15;9.93;;;3.23;;
12947;SDS011;6539;49.476;8.484;2023-01-10T09:30:50;8.90;;;3.90;;
12947;SDS011;6539;49.476;8.484;2023-01-10T09:33:16;10.73;;;3.00;;
12947;SDS011;6539;49.476;8.484;2023-01-10T09:35:43;8.37;;;2.43;;
12947;SDS011;6539;49.476;8.484;2023-01-10T09:38:13;9.83;;;3.37;;
12947;SDS011;6539;49.476;8.484;2023-01-10T09:52:02;9.33;;;3.10;;
12947;SDS011;6539;49.476;8.484;2023-01-10T09:54:36;9.13;;;3.20;;
12947;SDS011;6539;49.476;8.484;2023-01-10T09:57:18;17.50;;;3.37;;
12947;SDS011;6539;49.476;8.484;2023-01-10T09:59:47;11.40;;;3.83;;
12947;SDS011;6539;49.476;8.484;2023-01-10T10:02:22;12.73;;;3.20;;
12947;SDS011;6539;49.476;8.484;2023-01-10T10:05:12;8.47;;;2.73;;
12947;SDS011;6539;49.476;8.484;2023-01-10T10:07:53;13.57;;;3.43;;
12947;SDS011;6539;49.476;8.484;2023-01-10T10:10:29;10.03;;;2.80;;
12947;SDS011;6539;49.476;8.484;2023-01-10T10:13:14;11.03;;;3.53;;
12947;SDS011;6539;49.476;8.484;2023-01-10T10:19:18;9.60;;;2.70;;
12947;SDS011;6539;49.476;8.484;2023-01-10T10:29:51;10.80;;;3.20;;
12947;SDS011;6539;49.476;8.484;2023-01-10T10:32:47;13.40;;;3.10;;
12947;SDS011;6539;49.476;8.484;2023-01-10T10:35:49;11.67;;;3.00;;
12947;SDS011;6539;49.476;8.484;2023-01-10T10:38:25;12.00;;;2.60;;
12947;SDS011;6539;49.476;8.484;2023-01-10T10:41:00;12.67;;;2.70;;
12947;SDS011;6539;49.476;8.484;2023-01-10T10:43:34;9.37;;;2.87;;
12947;SDS011;6539;49.476;8.484;2023-01-10T10:48:57;10.63;;;2.80;;
12947;SDS011;6539;49.476;8.484;2023-01-10T10:51:54;10.83;;;3.13;;
12947;SDS011;6539;49.476;8.484;2023-01-10T10:54:21;13.73;;;2.97;;
12947;SDS011;6539;49.476;8.484;2023-01-10T10:56:48;14.37;;;3.07;;
12947;SDS011;6539;49.476;8.484;2023-01-10T10:59:17;12.20;;;3.07;;
12947;SDS011;6539;49.476;8.484;2023-01-10T11:01:49;15.47;;;3.53;;
12947;SDS011;6539;49.476;8.484;2023-01-10T11:04:17;8.07;;;2.87;;
12947;SDS011;6539;49.476;8.484;2023-01-10T11:06:47;12.87;;;3.03;;
12947;SDS011;6539;49.476;8.484;2023-01-10T11:09:20;14.53;;;3.93;;
12947;SDS011;6539;49.476;8.484;2023-01-10T11:11:50;12.77;;;2.93;;
12947;SDS011;6539;49.476;8.484;2023-01-10T11:17:17;17.63;;;3.73;;
12947;SDS011;6539;49.476;8.484;2023-01-10T11:20:03;7.93;;;2.97;;
12947;SDS011;6539;49.476;8.484;2023-01-10T11:22:38;13.27;;;3.20;;
12947;SDS011;6539;49.476;8.484;2023-01-10T11:25:14;10.20;;;3.10;;
12947;SDS011;6539;49.476;8.484;2023-01-10T11:27:46;20.83;;;4.13;;
12947;SDS011;6539;49.476;8.484;2023-01-10T11:30:18;10.73;;;3.03;;
12947;SDS011;6539;49.476;8.484;2023-01-10T11:32:52;10.70;;;3.23;;
12947;SDS011;6539;49.476;8.484;2023-01-10T11:35:27;10.77;;;3.60;;
12947;SDS011;6539;49.476;8.484;2023-01-10T11:40:53;14.03;;;3.70;;
12947;SDS011;6539;49.476;8.484;2023-01-10T11:43:45;11.53;;;3.27;;
12947;SDS011;6539;49.476;8.484;2023-01-10T11:46:12;13.20;;;2.90;;
12947;SDS011;6539;49.476;8.484;2023-01-10T11:48:52;8.60;;;3.07;;
12947;SDS011;6539;49.476;8.484;2023-01-10T11:51:37;12.43;;;3.30;;
12947;SDS011;6539;49.476;8.484;2023-01-10T11:54:18;9.67;;;3.20;;
12947;SDS011;6539;49.476;8.484;2023-01-10T11:59:30;13.57;;;3.43;;
12947;SDS011;6539;49.476;8.484;2023-01-10T12:02:01;10.13;;;3.20;;
12947;SDS011;6539;49.476;8.484;2023-01-10T12:04:40;9.37;;;3.00;;
12947;SDS011;6539;49.476;8.484;2023-01-10T12:07:11;9.70;;;2.83;;
12947;SDS011;6539;49.476;8.484;2023-01-10T12:14:58;16.07;;;3.90;;
12947;SDS011;6539;49.476;8.484;2023-01-10T12:17:49;13.80;;;3.27;;
12947;SDS011;6539;49.476;8.484;2023-01-10T12:20:16;13.27;;;4.00;;
12947;SDS011;6539;49.476;8.484;2023-01-10T12:22:46;15.30;;;3.50;;
12947;SDS011;6539;49.476;8.484;2023-01-10T12:25:43;16.00;;;4.43;;
12947;SDS011;6539;49.476;8.484;2023-01-10T12:28:28;18.60;;;4.07;;
12947;SDS011;6539;49.476;8.484;2023-01-10T12:30:55;16.60;;;3.80;;
12947;SDS011;6539;49.476;8.484;2023-01-10T12:33:29;16.10;;;3.70;;
12947;SDS011;6539;49.476;8.484;2023-01-10T12:41:45;8.73;;;2.70;;
12947;SDS011;6539;49.476;8.484;2023-01-10T12:44:45;12.90;;;3.43;;
12947;SDS011;6539;49.476;8.484;2023-01-10T12:47:24;12.97;;;3.40;;
12947;SDS011;6539;49.476;8.484;2023-01-10T12:50:21;16.30;;;3.73;;
12947;SDS011;6539;49.476;8.484;2023-01-10T12:56:03;10.53;;;3.70;;
12947;SDS011;6539;49.476;8.484;2023-01-10T12:58:38;12.87;;;3.00;;
12947;SDS011;6539;49.476;8.484;2023-01-10T13:01:17;9.07;;;4.00;;
12947;SDS011;6539;49.476;8.484;2023-01-10T13:03:56;12.63;;;3.40;;
12947;SDS011;6539;49.476;8.484;2023-01-10T13:06:46;14.67;;;3.53;;
12947;SDS011;6539;49.476;8.484;2023-01-10T13:14:26;11.10;;;3.47;;
12947;SDS011;6539;49.476;8.484;2023-01-10T13:17:36;13.47;;;3.93;;
12947;SDS011;6539;49.476;8.484;2023-01-10T13:23:10;13.80;;;3.27;;
12947;SDS011;6539;49.476;8.484;2023-01-10T13:25:55;13.13;;;3.67;;
12947;SDS011;6539;49.476;8.484;2023-01-10T13:28:27;12.13;;;3.57;;
12947;SDS011;6539;49.476;8.484;2023-01-10T13:30:59;10.07;;;2.80;;
12947;SDS011;6539;49.476;8.484;2023-01-10T13:33:31;12.17;;;3.17;;
12947;SDS011;6539;49.476;8.484;2023-01-10T13:36:14;12.37;;;2.77;;
12947;SDS011;6539;49.476;8.484;2023-01-10T13:38:57;13.33;;;3.53;;
12947;SDS011;6539;49.476;8.484;2023-01-10T14:08:57;13.03;;;2.83;;
12947;SDS011;6539;49.476;8.484;2023-01-10T14:14:22;12.10;;;3.13;;
12947;SDS011;6539;49.476;8.484;2023-01-10T14:17:14;14.47;;;2.93;;
12947;SDS011;6539;49.476;8.484;2023-01-10T14:20:01;10.87;;;2.93;;
12947;SDS011;6539;49.476;8.484;2023-01-10T14:22:35;11.57;;;2.97;;
12947;SDS011;6539;49.476;8.484;2023-01-10T14:25:14;9.80;;;3.17;;
12947;SDS011;6539;49.476;8.484;2023-01-10T14:27:47;10.60;;;2.93;;
12947;SDS011;6539;49.476;8.484;2023-01-10T14:30:26;8.53;;;2.40;;
12947;SDS011;6539;49.476;8.484;2023-01-10T14:32:59;11.43;;;2.73;;
12947;SDS011;6539;49.476;8.484;2023-01-10T14:35:47;14.60;;;2.73;;
12947;SDS011;6539;49.476;8.484;2023-01-10T14:38:28;7.17;;;2.33;;
12947;SDS011;6539;49.476;8.484;2023-01-10T14:43:30;7.60;;;3.00;;
12947;SDS011;6539;49.476;8.484;2023-01-10T14:46:19;8.87;;;2.80;;
12947;SDS011;6539;49.476;8.484;2023-01-10T14:48:54;11.90;;;3.10;;
12947;SDS011;6539;49.476;8.484;2023-01-10T14:51:25;9.97;;;2.60;;
12947;SDS011;6539;49.476;8.484;2023-01-10T15:02:02;6.07;;;2.33;;
12947;SDS011;6539;49.476;8.484;2023-01-10T15:07:21;9.07;;;2.40;;
12947;SDS011;6539;49.476;8.484;2023-01-10T15:09:52;8.13;;;2.63;;
12947;SDS011;6539;49.476;8.484;2023-01-10T15:12:26;10.10;;;2.67;;
12947;SDS011;6539;49.476;8.484;2023-01-10T15:15:04;6.87;;;2.73;;
12947;SDS011;6539;49.476;8.484;2023-01-10T15:17:41;5.20;;;2.40;;
12947;SDS011;6539;49.476;8.484;2023-01-10T15:20:13;6.50;;;2.30;;
12947;SDS011;6539;49.476;8.484;2023-01-10T15:22:42;8.90;;;2.73;;
12947;SDS011;6539;49.476;8.484;2023-01-10T15:28:02;12.03;;;2.63;;
12947;SDS011;6539;49.476;8.484;2023-01-10T15:30:30;8.80;;;2.30;;
12947;SDS011;6539;49.476;8.484;2023-01-10T15:33:03;9.63;;;2.70;;
12947;SDS011;6539;49.476;8.484;2023-01-10T15:35:37;8.03;;;2.90;;
12947;SDS011;6539;49.476;8.484;2023-01-10T15:38:11;3.50;;;2.17;;
12947;SDS011;6539;49.476;8.484;2023-01-10T15:40:45;11.00;;;2.50;;
12947;SDS011;6539;49.476;8.484;2023-01-10T15:43:23;11.10;;;2.93;;
12947;SDS011;6539;49.476;8.484;2023-01-10T15:45:51;8.93;;;2.87;;
12947;SDS011;6539;49.476;8.484;2023-01-10T15:48:27;9.87;;;2.70;;
12947;SDS011;6539;49.476;8.484;2023-01-10T15:51:14;11.53;;;2.30;;
12947;SDS011;6539;49.476;8.484;2023-01-10T15:54:01;6.80;;;2.60;;
12947;SDS011;6539;49.476;8.484;2023-01-10T15:56:48;13.63;;;3.20;;
12947;SDS011;6539;49.476;8.484;2023-01-10T15:59:27;11.30;;;3.07;;
12947;SDS011;6539;49.476;8.484;2023-01-10T16:02:17;6.13;;;2.27;;
12947;SDS011;6539;49.476;8.484;2023-01-10T16:04:50;5.90;;;2.13;;
12947;SDS011;6539;49.476;8.484;2023-01-10T16:07:27;7.77;;;2.30;;
12947;SDS011;6539;49.476;8.484;2023-01-10T16:10:04;5.13;;;2.30;;
12947;SDS011;6539;49.476;8.484;2023-01-10T16:12:46;8.10;;;3.07;;
12947;SDS011;6539;49.476;8.484;2023-01-10T16:15:34;6.73;;;2.57;;
12947;SDS011;6539;49.476;8.484;2023-01-10T16:18:08;7.47;;;2.43;;
12947;SDS011;6539;49.476;8.484;2023-01-10T16:20:38;9.27;;;2.87;;
12947;SDS011;6539;49.476;8.484;2023-01-10T16:23:18;6.93;;;2.70;;
12947;SDS011;6539;49.476;8.484;2023-01-10T16:26:00;10.33;;;2.77;;
12947;SDS011;6539;49.476;8.484;2023-01-10T16:28:31;8.43;;;2.77;;
12947;SDS011;6539;49.476;8.484;2023-01-10T16:31:02;4.87;;;1.80;;
12947;SDS011;6539;49.476;8.484;2023-01-10T16:33:34;7.57;;;2.07;;
12947;SDS011;6539;49.476;8.484;2023-01-10T16:36:01;6.23;;;2.03;;
12947;SDS011;6539;49.476;8.484;2023-01-10T16:38:31;6.10;;;2.03;;
12947;SDS011;6539;49.476;8.484;2023-01-10T16:40:57;6.33;;;2.27;;
12947;SDS011;6539;49.476;8.484;2023-01-10T16:43:46;4.70;;;2.20;;
12947;SDS011;6539;49.476;8.484;2023-01-10T16:46:18;5.50;;;2.43;;
12947;SDS011;6539;49.476;8.484;2023-01-10T16:48:44;7.30;;;2.03;;
12947;SDS011;6539;49.476;8.484;2023-01-10T16:51:15;6.07;;;2.40;;
12947;SDS011;6539;49.476;8.484;2023-01-10T16:53:45;6.37;;;2.67;;
12947;SDS011;6539;49.476;8.484;2023-01-10T16:56:17;5.30;;;2.10;;
12947;SDS011;6539;49.476;8.484;2023-01-10T16:58:52;7.83;;;2.80;;
12947;SDS011;6539;49.476;8.484;2023-01-10T17:01:23;6.40;;;2.50;;
12947;SDS011;6539;49.476;8.484;2023-01-10T17:04:01;5.77;;;2.33;;
12947;SDS011;6539;49.476;8.484;2023-01-10T17:06:33;6.30;;;2.33;;
12947;SDS011;6539;49.476;8.484;2023-01-10T17:08:59;10.63;;;2.87;;
12947;SDS011;6539;49.476;8.484;2023-01-10T17:11:26;10.63;;;2.80;;
12947;SDS011;6539;49.476;8.484;2023-01-10T17:14:01;6.07;;;2.80;;
12947;SDS011;6539;49.476;8.484;2023-01-10T17:16:28;11.30;;;3.70;;
12947;SDS011;6539;49.476;8.484;2023-01-10T17:18:56;6.57;;;2.70;;
12947;SDS011;6539;49.476;8.484;2023-01-10T17:21:22;7.63;;;2.77;;
12947;SDS011;6539;49.476;8.484;2023-01-10T17:23:48;8.03;;;2.60;;
12947;SDS011;6539;49.476;8.484;2023-01-10T17:26:15;7.07;;;2.37;;
12947;SDS011;6539;49.476;8.484;2023-01-10T17:28:46;6.00;;;2.70;;
12947;SDS011;6539;49.476;8.484;2023-01-10T17:31:15;6.97;;;2.50;;
12947;SDS011;6539;49.476;8.484;2023-01-10T17:33:43;7.10;;;2.00;;
12947;SDS011;6539;49.476;8.484;2023-01-10T17:36:09;7.30;;;3.00;;
12947;SDS011;6539;49.476;8.484;2023-01-10T17:38:38;5.63;;;2.53;;
12947;SDS011;6539;49.476;8.484;2023-01-10T17:41:06;5.33;;;2.50;;
12947;SDS011;6539;49.476;8.484;2023-01-10T17:43:34;4.93;;;2.03;;
12947;SDS011;6539;49.476;8.484;2023-01-10T17:46:04;5.50;;;2.20;;
12947;SDS011;6539;49.476;8.484;2023-01-10T17:48:34;5.47;;;2.13;;